sensor_id;sensor_type;location;lat;lon;timestamp;P1;durP1;ratioP1;P2;durP2;ratioP2
55364;SDS011;41245;45.384;20.390;2024-02-23T00:00:41;27.05;;;14.00;;
55364;SDS011;41245;45.384;20.390;2024-02-23T00:03:08;22.92;;;12.25;;
55364;SDS011;41245;45.384;20.390;2024-02-23T00:05:35;24.48;;;12.63;;
55364;SDS011;41245;45.384;20.390;2024-02-23T00:08:01;28.98;;;12.82;;
55364;SDS011;41245;45.384;20.390;2024-02-23T00:10:27;28.58;;;12.80;;
55364;SDS011;41245;45.384;20.390;2024-02-23T00:12:54;30.00;;;12.73;;
55364;SDS011;41245;45.384;20.390;2024-02-23T00:15:20;22.27;;;11.27;;
55364;SDS011;41245;45.384;20.390;2024-02-23T00:17:46;31.00;;;14.13;;
55364;SDS011;41245;45.384;20.390;2024-02-23T00:20:12;40.17;;;16.52;;
55364;SDS011;41245;45.384;20.390;2024-02-23T00:22:40;39.40;;;15.85;;
55364;SDS011;41245;45.384;20.390;2024-02-23T00:25:06;39.22;;;17.63;;
55364;SDS011;41245;45.384;20.390;2024-02-23T00:27:32;92.03;;;35.42;;
55364;SDS011;41245;45.384;20.390;2024-02-23T00:29:59;108.72;;;40.92;;
55364;SDS011;41245;45.384;20.390;2024-02-23T00:32:25;60.40;;;25.05;;
55364;SDS011;41245;45.384;20.390;2024-02-23T00:34:51;33.80;;;17.15;;
55364;SDS011;41245;45.384;20.390;2024-02-23T00:37:17;24.90;;;14.27;;
55364;SDS011;41245;45.384;20.390;2024-02-23T00:39:43;21.80;;;14.05;;
55364;SDS011;41245;45.384;20.390;2024-02-23T00:42:09;27.27;;;14.85;;
55364;SDS011;41245;45.384;20.390;2024-02-23T00:44:35;22.27;;;11.73;;
55364;SDS011;41245;45.384;20.390;2024-02-23T00:47:01;32.22;;;13.93;;
55364;SDS011;41245;45.384;20.390;2024-02-23T00:49:29;26.70;;;12.77;;
55364;SDS011;41245;45.384;20.390;2024-02-23T00:51:55;31.38;;;13.85;;
55364;SDS011;41245;45.384;20.390;2024-02-23T00:54:21;28.42;;;12.13;;
55364;SDS011;41245;45.384;20.390;2024-02-23T00:56:47;32.10;;;14.75;;
55364;SDS011;41245;45.384;20.390;2024-02-23T00:59:13;23.15;;;12.40;;
55364;SDS011;41245;45.384;20.390;2024-02-23T01:01:39;25.80;;;12.57;;
55364;SDS011;41245;45.384;20.390;2024-02-23T01:04:05;34.40;;;12.13;;
55364;SDS011;41245;45.384;20.390;2024-02-23T01:06:31;25.60;;;13.30;;
55364;SDS011;41245;45.384;20.390;2024-02-23T01:08:57;23.75;;;12.27;;
55364;SDS011;41245;45.384;20.390;2024-02-23T01:11:23;25.30;;;12.63;;
55364;SDS011;41245;45.384;20.390;2024-02-23T01:13:50;23.38;;;12.13;;
55364;SDS011;41245;45.384;20.390;2024-02-23T01:16:16;26.92;;;13.18;;
55364;SDS011;41245;45.384;20.390;2024-02-23T01:18:42;23.60;;;12.07;;
55364;SDS011;41245;45.384;20.390;2024-02-23T01:21:08;24.60;;;13.02;;
55364;SDS011;41245;45.384;20.390;2024-02-23T01:23:34;24.38;;;12.57;;
55364;SDS011;41245;45.384;20.390;2024-02-23T01:26:00;33.80;;;14.35;;
55364;SDS011;41245;45.384;20.390;2024-02-23T01:28:27;20.77;;;11.55;;
55364;SDS011;41245;45.384;20.390;2024-02-23T01:30:53;18.00;;;10.35;;
55364;SDS011;41245;45.384;20.390;2024-02-23T01:33:19;26.25;;;12.77;;
55364;SDS011;41245;45.384;20.390;2024-02-23T01:35:45;18.77;;;10.68;;
55364;SDS011;41245;45.384;20.390;2024-02-23T01:38:12;22.73;;;10.55;;
55364;SDS011;41245;45.384;20.390;2024-02-23T01:40:44;22.27;;;11.20;;
55364;SDS011;41245;45.384;20.390;2024-02-23T01:43:10;20.80;;;10.50;;
55364;SDS011;41245;45.384;20.390;2024-02-23T01:45:36;20.67;;;11.13;;
55364;SDS011;41245;45.384;20.390;2024-02-23T01:48:02;18.88;;;10.88;;
55364;SDS011;41245;45.384;20.390;2024-02-23T01:50:28;20.23;;;11.23;;
55364;SDS011;41245;45.384;20.390;2024-02-23T01:52:57;16.95;;;10.52;;
55364;SDS011;41245;45.384;20.390;2024-02-23T01:55:25;17.45;;;10.55;;
55364;SDS011;41245;45.384;20.390;2024-02-23T01:57:52;21.05;;;11.65;;
55364;SDS011;41245;45.384;20.390;2024-02-23T02:00:18;22.08;;;10.73;;
55364;SDS011;41245;45.384;20.390;2024-02-23T02:02:46;28.48;;;12.75;;
55364;SDS011;41245;45.384;20.390;2024-02-23T02:05:12;28.13;;;13.50;;
55364;SDS011;41245;45.384;20.390;2024-02-23T02:07:39;19.63;;;10.60;;
55364;SDS011;41245;45.384;20.390;2024-02-23T02:10:06;21.05;;;11.43;;
55364;SDS011;41245;45.384;20.390;2024-02-23T02:12:34;30.58;;;13.30;;
55364;SDS011;41245;45.384;20.390;2024-02-23T02:15:00;37.00;;;14.55;;
55364;SDS011;41245;45.384;20.390;2024-02-23T02:17:30;99.28;;;32.28;;
55364;SDS011;41245;45.384;20.390;2024-02-23T02:19:57;26.48;;;14.32;;
55364;SDS011;41245;45.384;20.390;2024-02-23T02:22:25;22.67;;;10.70;;
55364;SDS011;41245;45.384;20.390;2024-02-23T02:24:51;24.40;;;9.73;;
55364;SDS011;41245;45.384;20.390;2024-02-23T02:27:17;17.25;;;9.40;;
55364;SDS011;41245;45.384;20.390;2024-02-23T02:29:43;21.90;;;10.95;;
55364;SDS011;41245;45.384;20.390;2024-02-23T02:32:09;17.23;;;9.30;;
55364;SDS011;41245;45.384;20.390;2024-02-23T02:34:35;20.33;;;9.93;;
55364;SDS011;41245;45.384;20.390;2024-02-23T02:37:01;20.08;;;9.23;;
55364;SDS011;41245;45.384;20.390;2024-02-23T02:39:27;19.85;;;9.70;;
55364;SDS011;41245;45.384;20.390;2024-02-23T02:41:53;20.17;;;9.50;;
55364;SDS011;41245;45.384;20.390;2024-02-23T02:44:19;15.85;;;9.35;;
55364;SDS011;41245;45.384;20.390;2024-02-23T02:46:46;23.65;;;12.80;;
55364;SDS011;41245;45.384;20.390;2024-02-23T02:49:12;31.95;;;14.13;;
55364;SDS011;41245;45.384;20.390;2024-02-23T02:51:38;19.42;;;11.75;;
55364;SDS011;41245;45.384;20.390;2024-02-23T02:54:04;16.73;;;10.57;;
55364;SDS011;41245;45.384;20.390;2024-02-23T02:56:30;22.00;;;10.27;;
55364;SDS011;41245;45.384;20.390;2024-02-23T02:58:56;30.13;;;14.27;;
55364;SDS011;41245;45.384;20.390;2024-02-23T03:01:22;25.90;;;14.43;;
55364;SDS011;41245;45.384;20.390;2024-02-23T03:03:48;27.52;;;11.02;;
55364;SDS011;41245;45.384;20.390;2024-02-23T03:06:14;15.45;;;8.68;;
55364;SDS011;41245;45.384;20.390;2024-02-23T03:08:43;19.80;;;9.23;;
55364;SDS011;41245;45.384;20.390;2024-02-23T03:11:10;21.97;;;8.93;;
55364;SDS011;41245;45.384;20.390;2024-02-23T03:13:37;14.25;;;7.65;;
55364;SDS011;41245;45.384;20.390;2024-02-23T03:16:03;15.27;;;8.77;;
55364;SDS011;41245;45.384;20.390;2024-02-23T03:18:29;14.70;;;7.93;;
55364;SDS011;41245;45.384;20.390;2024-02-23T03:20:55;16.13;;;7.72;;
55364;SDS011;41245;45.384;20.390;2024-02-23T03:23:21;12.90;;;7.35;;
55364;SDS011;41245;45.384;20.390;2024-02-23T03:25:48;16.67;;;8.32;;
55364;SDS011;41245;45.384;20.390;2024-02-23T03:28:14;15.13;;;8.57;;
55364;SDS011;41245;45.384;20.390;2024-02-23T03:30:40;12.10;;;7.70;;
55364;SDS011;41245;45.384;20.390;2024-02-23T03:33:06;17.17;;;9.25;;
55364;SDS011;41245;45.384;20.390;2024-02-23T03:35:32;13.80;;;7.53;;
55364;SDS011;41245;45.384;20.390;2024-02-23T03:37:58;12.40;;;7.35;;
55364;SDS011;41245;45.384;20.390;2024-02-23T03:40:24;11.70;;;6.25;;
55364;SDS011;41245;45.384;20.390;2024-02-23T03:42:50;12.02;;;6.93;;
55364;SDS011;41245;45.384;20.390;2024-02-23T03:45:16;10.13;;;6.43;;
55364;SDS011;41245;45.384;20.390;2024-02-23T03:47:42;12.73;;;6.15;;
55364;SDS011;41245;45.384;20.390;2024-02-23T03:50:09;12.38;;;6.78;;
55364;SDS011;41245;45.384;20.390;2024-02-23T03:52:35;11.68;;;6.85;;
55364;SDS011;41245;45.384;20.390;2024-02-23T03:55:01;11.68;;;6.35;;
55364;SDS011;41245;45.384;20.390;2024-02-23T03:57:28;15.50;;;7.60;;
55364;SDS011;41245;45.384;20.390;2024-02-23T03:59:55;16.90;;;6.93;;
55364;SDS011;41245;45.384;20.390;2024-02-23T04:02:21;15.65;;;8.30;;
55364;SDS011;41245;45.384;20.390;2024-02-23T04:04:47;16.58;;;7.07;;
55364;SDS011;41245;45.384;20.390;2024-02-23T04:07:14;16.23;;;7.85;;
55364;SDS011;41245;45.384;20.390;2024-02-23T04:09:40;15.48;;;7.15;;
55364;SDS011;41245;45.384;20.390;2024-02-23T04:12:06;15.55;;;7.55;;
55364;SDS011;41245;45.384;20.390;2024-02-23T04:14:33;12.30;;;7.82;;
55364;SDS011;41245;45.384;20.390;2024-02-23T04:17:01;11.27;;;6.47;;
55364;SDS011;41245;45.384;20.390;2024-02-23T04:19:28;9.20;;;5.07;;
55364;SDS011;41245;45.384;20.390;2024-02-23T04:21:54;8.80;;;5.80;;
55364;SDS011;41245;45.384;20.390;2024-02-23T04:24:20;10.52;;;6.47;;
55364;SDS011;41245;45.384;20.390;2024-02-23T04:26:46;12.07;;;6.10;;
55364;SDS011;41245;45.384;20.390;2024-02-23T04:29:12;14.27;;;6.32;;
55364;SDS011;41245;45.384;20.390;2024-02-23T04:31:38;15.05;;;6.07;;
55364;SDS011;41245;45.384;20.390;2024-02-23T04:34:04;11.80;;;6.93;;
55364;SDS011;41245;45.384;20.390;2024-02-23T04:36:30;19.33;;;9.07;;
55364;SDS011;41245;45.384;20.390;2024-02-23T04:38:56;16.60;;;7.95;;
55364;SDS011;41245;45.384;20.390;2024-02-23T04:41:22;17.83;;;8.98;;
55364;SDS011;41245;45.384;20.390;2024-02-23T04:43:49;13.98;;;7.97;;
55364;SDS011;41245;45.384;20.390;2024-02-23T04:46:16;16.42;;;7.72;;
55364;SDS011;41245;45.384;20.390;2024-02-23T04:48:42;17.20;;;7.97;;
55364;SDS011;41245;45.384;20.390;2024-02-23T04:51:08;13.48;;;6.20;;
55364;SDS011;41245;45.384;20.390;2024-02-23T04:53:38;10.52;;;5.00;;
55364;SDS011;41245;45.384;20.390;2024-02-23T04:56:04;10.63;;;5.38;;
55364;SDS011;41245;45.384;20.390;2024-02-23T04:58:30;11.27;;;5.38;;
55364;SDS011;41245;45.384;20.390;2024-02-23T05:00:57;12.68;;;5.47;;
55364;SDS011;41245;45.384;20.390;2024-02-23T05:03:23;8.93;;;5.75;;
55364;SDS011;41245;45.384;20.390;2024-02-23T05:05:49;10.85;;;5.57;;
55364;SDS011;41245;45.384;20.390;2024-02-23T05:08:19;15.50;;;6.32;;
55364;SDS011;41245;45.384;20.390;2024-02-23T05:10:46;11.27;;;6.07;;
55364;SDS011;41245;45.384;20.390;2024-02-23T05:13:12;9.45;;;5.68;;
55364;SDS011;41245;45.384;20.390;2024-02-23T05:15:38;9.30;;;5.50;;
55364;SDS011;41245;45.384;20.390;2024-02-23T05:18:05;16.42;;;6.07;;
55364;SDS011;41245;45.384;20.390;2024-02-23T05:20:31;12.32;;;5.18;;
55364;SDS011;41245;45.384;20.390;2024-02-23T05:22:57;13.75;;;6.13;;
55364;SDS011;41245;45.384;20.390;2024-02-23T05:25:23;10.07;;;6.53;;
55364;SDS011;41245;45.384;20.390;2024-02-23T05:27:51;11.93;;;6.53;;
55364;SDS011;41245;45.384;20.390;2024-02-23T05:30:17;8.10;;;5.22;;
55364;SDS011;41245;45.384;20.390;2024-02-23T05:32:43;10.15;;;6.03;;
55364;SDS011;41245;45.384;20.390;2024-02-23T05:35:09;13.00;;;6.90;;
55364;SDS011;41245;45.384;20.390;2024-02-23T05:37:35;9.95;;;5.93;;
55364;SDS011;41245;45.384;20.390;2024-02-23T05:40:03;10.15;;;6.13;;
55364;SDS011;41245;45.384;20.390;2024-02-23T05:44:58;10.65;;;5.80;;
55364;SDS011;41245;45.384;20.390;2024-02-23T05:47:24;10.15;;;5.82;;
55364;SDS011;41245;45.384;20.390;2024-02-23T05:49:50;13.07;;;5.82;;
55364;SDS011;41245;45.384;20.390;2024-02-23T05:52:16;11.18;;;6.45;;
55364;SDS011;41245;45.384;20.390;2024-02-23T05:54:42;13.77;;;6.40;;
55364;SDS011;41245;45.384;20.390;2024-02-23T05:57:08;12.63;;;6.13;;
55364;SDS011;41245;45.384;20.390;2024-02-23T05:59:34;15.73;;;6.35;;
55364;SDS011;41245;45.384;20.390;2024-02-23T06:02:00;10.18;;;5.43;;
55364;SDS011;41245;45.384;20.390;2024-02-23T06:04:26;11.30;;;5.85;;
55364;SDS011;41245;45.384;20.390;2024-02-23T06:06:52;10.65;;;5.78;;
55364;SDS011;41245;45.384;20.390;2024-02-23T06:09:19;16.15;;;6.22;;
55364;SDS011;41245;45.384;20.390;2024-02-23T06:11:45;10.68;;;5.82;;
55364;SDS011;41245;45.384;20.390;2024-02-23T06:14:11;13.70;;;6.32;;
55364;SDS011;41245;45.384;20.390;2024-02-23T06:16:37;14.07;;;6.55;;
55364;SDS011;41245;45.384;20.390;2024-02-23T06:19:03;9.23;;;5.82;;
55364;SDS011;41245;45.384;20.390;2024-02-23T06:21:29;13.20;;;5.47;;
55364;SDS011;41245;45.384;20.390;2024-02-23T06:23:56;13.43;;;6.25;;
55364;SDS011;41245;45.384;20.390;2024-02-23T06:26:22;13.35;;;5.25;;
55364;SDS011;41245;45.384;20.390;2024-02-23T06:28:48;8.90;;;4.97;;
55364;SDS011;41245;45.384;20.390;2024-02-23T06:31:15;11.93;;;6.50;;
55364;SDS011;41245;45.384;20.390;2024-02-23T06:33:41;10.45;;;5.78;;
55364;SDS011;41245;45.384;20.390;2024-02-23T06:36:07;10.13;;;5.05;;
55364;SDS011;41245;45.384;20.390;2024-02-23T06:38:34;10.07;;;5.22;;
55364;SDS011;41245;45.384;20.390;2024-02-23T06:41:00;8.50;;;4.95;;
55364;SDS011;41245;45.384;20.390;2024-02-23T06:43:26;11.35;;;5.45;;
55364;SDS011;41245;45.384;20.390;2024-02-23T06:45:52;11.02;;;5.95;;
55364;SDS011;41245;45.384;20.390;2024-02-23T06:48:18;10.90;;;6.50;;
55364;SDS011;41245;45.384;20.390;2024-02-23T06:50:44;11.30;;;5.95;;
55364;SDS011;41245;45.384;20.390;2024-02-23T06:53:10;13.55;;;6.80;;
55364;SDS011;41245;45.384;20.390;2024-02-23T06:55:36;9.95;;;5.72;;
55364;SDS011;41245;45.384;20.390;2024-02-23T06:58:02;14.00;;;7.10;;
55364;SDS011;41245;45.384;20.390;2024-02-23T07:00:30;18.27;;;6.65;;
55364;SDS011;41245;45.384;20.390;2024-02-23T07:02:56;18.30;;;5.97;;
55364;SDS011;41245;45.384;20.390;2024-02-23T07:05:28;17.27;;;7.00;;
55364;SDS011;41245;45.384;20.390;2024-02-23T07:07:54;17.17;;;6.53;;
55364;SDS011;41245;45.384;20.390;2024-02-23T07:10:20;13.18;;;6.70;;
55364;SDS011;41245;45.384;20.390;2024-02-23T07:12:47;12.65;;;7.22;;
55364;SDS011;41245;45.384;20.390;2024-02-23T07:15:14;16.20;;;7.20;;
55364;SDS011;41245;45.384;20.390;2024-02-23T07:17:40;12.10;;;6.55;;
55364;SDS011;41245;45.384;20.390;2024-02-23T07:20:06;10.45;;;6.65;;
55364;SDS011;41245;45.384;20.390;2024-02-23T07:22:32;12.88;;;6.20;;
55364;SDS011;41245;45.384;20.390;2024-02-23T07:24:59;14.82;;;7.20;;
55364;SDS011;41245;45.384;20.390;2024-02-23T07:27:28;11.85;;;6.65;;
55364;SDS011;41245;45.384;20.390;2024-02-23T07:29:54;11.07;;;6.80;;
55364;SDS011;41245;45.384;20.390;2024-02-23T07:32:20;12.85;;;6.13;;
55364;SDS011;41245;45.384;20.390;2024-02-23T07:34:46;12.75;;;6.18;;
55364;SDS011;41245;45.384;20.390;2024-02-23T07:37:13;10.52;;;5.78;;
55364;SDS011;41245;45.384;20.390;2024-02-23T07:39:39;17.63;;;6.30;;
55364;SDS011;41245;45.384;20.390;2024-02-23T07:42:05;13.38;;;6.22;;
55364;SDS011;41245;45.384;20.390;2024-02-23T07:44:33;10.75;;;6.57;;
55364;SDS011;41245;45.384;20.390;2024-02-23T07:46:59;14.70;;;6.95;;
55364;SDS011;41245;45.384;20.390;2024-02-23T07:49:25;13.30;;;7.55;;
55364;SDS011;41245;45.384;20.390;2024-02-23T07:51:53;10.90;;;6.22;;
55364;SDS011;41245;45.384;20.390;2024-02-23T07:54:19;9.50;;;5.65;;
55364;SDS011;41245;45.384;20.390;2024-02-23T07:56:45;18.02;;;7.63;;
55364;SDS011;41245;45.384;20.390;2024-02-23T07:59:11;9.93;;;5.93;;
55364;SDS011;41245;45.384;20.390;2024-02-23T08:01:37;11.38;;;6.20;;
55364;SDS011;41245;45.384;20.390;2024-02-23T08:04:05;18.27;;;7.57;;
55364;SDS011;41245;45.384;20.390;2024-02-23T08:06:31;10.52;;;6.40;;
55364;SDS011;41245;45.384;20.390;2024-02-23T08:08:57;10.63;;;6.93;;
55364;SDS011;41245;45.384;20.390;2024-02-23T08:11:23;16.02;;;7.20;;
55364;SDS011;41245;45.384;20.390;2024-02-23T08:13:50;12.93;;;6.95;;
55364;SDS011;41245;45.384;20.390;2024-02-23T08:16:16;14.32;;;6.82;;
55364;SDS011;41245;45.384;20.390;2024-02-23T08:18:42;15.00;;;7.90;;
55364;SDS011;41245;45.384;20.390;2024-02-23T08:21:09;13.02;;;7.00;;
55364;SDS011;41245;45.384;20.390;2024-02-23T08:23:36;28.27;;;8.32;;
55364;SDS011;41245;45.384;20.390;2024-02-23T08:26:02;10.90;;;6.80;;
55364;SDS011;41245;45.384;20.390;2024-02-23T08:28:28;15.00;;;6.97;;
55364;SDS011;41245;45.384;20.390;2024-02-23T08:30:54;16.83;;;8.02;;
55364;SDS011;41245;45.384;20.390;2024-02-23T08:33:20;17.08;;;7.40;;
55364;SDS011;41245;45.384;20.390;2024-02-23T08:35:46;15.40;;;7.65;;
55364;SDS011;41245;45.384;20.390;2024-02-23T08:38:13;11.70;;;6.97;;
55364;SDS011;41245;45.384;20.390;2024-02-23T08:40:39;11.80;;;6.80;;
55364;SDS011;41245;45.384;20.390;2024-02-23T08:43:07;11.27;;;6.25;;
55364;SDS011;41245;45.384;20.390;2024-02-23T08:45:33;15.82;;;7.95;;
55364;SDS011;41245;45.384;20.390;2024-02-23T08:47:59;20.00;;;7.72;;
55364;SDS011;41245;45.384;20.390;2024-02-23T08:50:25;15.70;;;6.78;;
55364;SDS011;41245;45.384;20.390;2024-02-23T08:52:51;12.57;;;6.60;;
55364;SDS011;41245;45.384;20.390;2024-02-23T08:55:17;21.00;;;11.38;;
55364;SDS011;41245;45.384;20.390;2024-02-23T08:57:43;21.23;;;12.02;;
55364;SDS011;41245;45.384;20.390;2024-02-23T09:00:10;25.25;;;14.10;;
55364;SDS011;41245;45.384;20.390;2024-02-23T09:02:36;27.27;;;14.30;;
55364;SDS011;41245;45.384;20.390;2024-02-23T09:05:03;45.42;;;21.27;;
55364;SDS011;41245;45.384;20.390;2024-02-23T09:07:29;21.88;;;10.77;;
55364;SDS011;41245;45.384;20.390;2024-02-23T09:09:55;23.00;;;13.23;;
55364;SDS011;41245;45.384;20.390;2024-02-23T09:12:22;15.95;;;8.48;;
55364;SDS011;41245;45.384;20.390;2024-02-23T09:14:48;12.35;;;6.95;;
55364;SDS011;41245;45.384;20.390;2024-02-23T09:17:14;14.85;;;7.40;;
55364;SDS011;41245;45.384;20.390;2024-02-23T09:19:40;15.38;;;7.25;;
55364;SDS011;41245;45.384;20.390;2024-02-23T09:22:06;10.52;;;6.35;;
55364;SDS011;41245;45.384;20.390;2024-02-23T09:24:32;15.43;;;7.65;;
55364;SDS011;41245;45.384;20.390;2024-02-23T09:26:58;12.48;;;7.43;;
55364;SDS011;41245;45.384;20.390;2024-02-23T09:29:24;14.48;;;7.03;;
55364;SDS011;41245;45.384;20.390;2024-02-23T09:31:50;13.70;;;7.25;;
55364;SDS011;41245;45.384;20.390;2024-02-23T09:34:17;11.35;;;6.82;;
55364;SDS011;41245;45.384;20.390;2024-02-23T09:36:43;20.38;;;8.15;;
55364;SDS011;41245;45.384;20.390;2024-02-23T09:39:09;10.52;;;6.63;;
55364;SDS011;41245;45.384;20.390;2024-02-23T09:41:35;30.70;;;8.38;;
55364;SDS011;41245;45.384;20.390;2024-02-23T09:44:03;22.80;;;8.85;;
55364;SDS011;41245;45.384;20.390;2024-02-23T09:46:32;18.83;;;7.78;;
55364;SDS011;41245;45.384;20.390;2024-02-23T09:48:58;13.95;;;7.35;;
55364;SDS011;41245;45.384;20.390;2024-02-23T09:51:25;11.85;;;6.35;;
55364;SDS011;41245;45.384;20.390;2024-02-23T09:53:51;16.90;;;6.68;;
55364;SDS011;41245;45.384;20.390;2024-02-23T09:56:19;16.23;;;8.13;;
55364;SDS011;41245;45.384;20.390;2024-02-23T09:58:46;10.85;;;6.88;;
55364;SDS011;41245;45.384;20.390;2024-02-23T10:01:12;11.00;;;6.90;;
55364;SDS011;41245;45.384;20.390;2024-02-23T10:03:40;12.15;;;6.20;;
55364;SDS011;41245;45.384;20.390;2024-02-23T10:06:07;18.17;;;8.82;;
55364;SDS011;41245;45.384;20.390;2024-02-23T10:08:33;15.75;;;7.70;;
55364;SDS011;41245;45.384;20.390;2024-02-23T10:11:01;13.13;;;5.97;;
55364;SDS011;41245;45.384;20.390;2024-02-23T10:13:27;15.57;;;5.65;;
55364;SDS011;41245;45.384;20.390;2024-02-23T10:15:55;11.80;;;7.07;;
55364;SDS011;41245;45.384;20.390;2024-02-23T10:18:21;10.25;;;6.22;;
55364;SDS011;41245;45.384;20.390;2024-02-23T10:20:48;11.10;;;6.40;;
55364;SDS011;41245;45.384;20.390;2024-02-23T10:23:15;11.95;;;7.53;;
55364;SDS011;41245;45.384;20.390;2024-02-23T10:25:41;17.90;;;7.13;;
55364;SDS011;41245;45.384;20.390;2024-02-23T10:28:08;17.20;;;7.93;;
55364;SDS011;41245;45.384;20.390;2024-02-23T10:30:36;16.10;;;8.07;;
55364;SDS011;41245;45.384;20.390;2024-02-23T10:33:03;14.40;;;7.20;;
55364;SDS011;41245;45.384;20.390;2024-02-23T10:35:31;14.93;;;6.80;;
55364;SDS011;41245;45.384;20.390;2024-02-23T10:38:00;11.77;;;7.17;;
55364;SDS011;41245;45.384;20.390;2024-02-23T10:40:27;15.30;;;8.20;;
55364;SDS011;41245;45.384;20.390;2024-02-23T10:43:02;15.25;;;9.75;;
55364;SDS011;41245;45.384;20.390;2024-02-23T10:45:28;14.27;;;8.90;;
55364;SDS011;41245;45.384;20.390;2024-02-23T10:47:54;13.75;;;8.45;;
55364;SDS011;41245;45.384;20.390;2024-02-23T10:50:21;16.38;;;7.90;;
55364;SDS011;41245;45.384;20.390;2024-02-23T10:52:47;13.07;;;8.75;;
55364;SDS011;41245;45.384;20.390;2024-02-23T10:55:14;14.77;;;8.52;;
55364;SDS011;41245;45.384;20.390;2024-02-23T10:57:41;22.45;;;10.55;;
55364;SDS011;41245;45.384;20.390;2024-02-23T11:00:08;22.80;;;13.18;;
55364;SDS011;41245;45.384;20.390;2024-02-23T11:02:53;14.85;;;7.70;;
55364;SDS011;41245;45.384;20.390;2024-02-23T11:05:21;14.18;;;7.60;;
55364;SDS011;41245;45.384;20.390;2024-02-23T11:07:49;13.48;;;8.57;;
55364;SDS011;41245;45.384;20.390;2024-02-23T11:10:16;22.30;;;9.77;;
55364;SDS011;41245;45.384;20.390;2024-02-23T11:12:43;20.40;;;9.50;;
55364;SDS011;41245;45.384;20.390;2024-02-23T11:15:09;20.40;;;7.80;;
55364;SDS011;41245;45.384;20.390;2024-02-23T11:17:36;19.60;;;8.60;;
55364;SDS011;41245;45.384;20.390;2024-02-23T11:20:03;23.15;;;10.68;;
55364;SDS011;41245;45.384;20.390;2024-02-23T11:22:30;26.20;;;12.55;;
55364;SDS011;41245;45.384;20.390;2024-02-23T11:25:01;26.55;;;11.43;;
55364;SDS011;41245;45.384;20.390;2024-02-23T11:27:31;31.08;;;14.10;;
55364;SDS011;41245;45.384;20.390;2024-02-23T11:29:59;10.55;;;7.40;;
55364;SDS011;41245;45.384;20.390;2024-02-23T11:32:34;12.88;;;6.57;;
55364;SDS011;41245;45.384;20.390;2024-02-23T11:35:01;18.30;;;7.68;;
55364;SDS011;41245;45.384;20.390;2024-02-23T11:37:30;9.82;;;6.40;;
55364;SDS011;41245;45.384;20.390;2024-02-23T11:39:57;14.70;;;7.35;;
55364;SDS011;41245;45.384;20.390;2024-02-23T11:42:24;15.23;;;6.45;;
55364;SDS011;41245;45.384;20.390;2024-02-23T11:44:52;10.30;;;6.03;;
55364;SDS011;41245;45.384;20.390;2024-02-23T11:47:19;14.70;;;7.32;;
55364;SDS011;41245;45.384;20.390;2024-02-23T11:49:45;12.10;;;6.45;;
55364;SDS011;41245;45.384;20.390;2024-02-23T11:52:11;7.97;;;5.75;;
55364;SDS011;41245;45.384;20.390;2024-02-23T11:54:37;10.73;;;6.22;;
55364;SDS011;41245;45.384;20.390;2024-02-23T11:57:03;17.90;;;6.38;;
55364;SDS011;41245;45.384;20.390;2024-02-23T11:59:29;12.52;;;6.55;;
55364;SDS011;41245;45.384;20.390;2024-02-23T12:01:55;11.00;;;7.60;;
55364;SDS011;41245;45.384;20.390;2024-02-23T12:04:21;15.13;;;10.30;;
55364;SDS011;41245;45.384;20.390;2024-02-23T12:06:47;13.90;;;7.68;;
55364;SDS011;41245;45.384;20.390;2024-02-23T12:09:14;12.35;;;8.13;;
55364;SDS011;41245;45.384;20.390;2024-02-23T12:11:40;18.58;;;8.25;;
55364;SDS011;41245;45.384;20.390;2024-02-23T12:14:07;12.23;;;6.57;;
55364;SDS011;41245;45.384;20.390;2024-02-23T12:16:34;11.57;;;6.78;;
55364;SDS011;41245;45.384;20.390;2024-02-23T12:19:03;15.23;;;6.57;;
55364;SDS011;41245;45.384;20.390;2024-02-23T12:21:29;18.30;;;5.90;;
55364;SDS011;41245;45.384;20.390;2024-02-23T12:23:55;18.25;;;6.57;;
55364;SDS011;41245;45.384;20.390;2024-02-23T12:26:21;10.68;;;5.07;;
55364;SDS011;41245;45.384;20.390;2024-02-23T12:28:47;12.25;;;7.10;;
55364;SDS011;41245;45.384;20.390;2024-02-23T12:31:13;13.95;;;6.32;;
55364;SDS011;41245;45.384;20.390;2024-02-23T12:33:40;14.80;;;6.82;;
55364;SDS011;41245;45.384;20.390;2024-02-23T12:36:06;11.20;;;6.50;;
55364;SDS011;41245;45.384;20.390;2024-02-23T12:38:33;12.68;;;6.18;;
55364;SDS011;41245;45.384;20.390;2024-02-23T12:40:59;10.88;;;6.82;;
55364;SDS011;41245;45.384;20.390;2024-02-23T12:43:26;11.52;;;6.35;;
55364;SDS011;41245;45.384;20.390;2024-02-23T12:45:55;11.95;;;6.25;;
55364;SDS011;41245;45.384;20.390;2024-02-23T12:48:22;9.20;;;5.63;;
55364;SDS011;41245;45.384;20.390;2024-02-23T12:50:48;10.52;;;5.28;;
55364;SDS011;41245;45.384;20.390;2024-02-23T12:53:34;13.30;;;6.20;;
55364;SDS011;41245;45.384;20.390;2024-02-23T12:56:07;11.85;;;5.40;;
55364;SDS011;41245;45.384;20.390;2024-02-23T12:58:33;11.35;;;5.57;;
55364;SDS011;41245;45.384;20.390;2024-02-23T13:00:59;12.43;;;6.10;;
55364;SDS011;41245;45.384;20.390;2024-02-23T13:03:25;12.68;;;6.05;;
55364;SDS011;41245;45.384;20.390;2024-02-23T13:05:52;10.05;;;5.20;;
55364;SDS011;41245;45.384;20.390;2024-02-23T13:08:18;8.35;;;4.97;;
55364;SDS011;41245;45.384;20.390;2024-02-23T13:10:44;9.40;;;5.60;;
55364;SDS011;41245;45.384;20.390;2024-02-23T13:13:10;10.85;;;5.82;;
55364;SDS011;41245;45.384;20.390;2024-02-23T13:15:38;7.70;;;5.45;;
55364;SDS011;41245;45.384;20.390;2024-02-23T13:18:04;9.32;;;5.45;;
55364;SDS011;41245;45.384;20.390;2024-02-23T13:20:31;14.07;;;5.43;;
55364;SDS011;41245;45.384;20.390;2024-02-23T13:22:57;12.48;;;5.18;;
55364;SDS011;41245;45.384;20.390;2024-02-23T13:25:23;11.50;;;5.57;;
55364;SDS011;41245;45.384;20.390;2024-02-23T13:27:49;11.43;;;5.63;;
55364;SDS011;41245;45.384;20.390;2024-02-23T13:30:15;10.05;;;5.53;;
55364;SDS011;41245;45.384;20.390;2024-02-23T13:32:41;11.23;;;5.90;;
55364;SDS011;41245;45.384;20.390;2024-02-23T13:35:07;10.50;;;5.50;;
55364;SDS011;41245;45.384;20.390;2024-02-23T13:37:33;12.90;;;6.07;;
55364;SDS011;41245;45.384;20.390;2024-02-23T13:40:00;15.48;;;6.70;;
55364;SDS011;41245;45.384;20.390;2024-02-23T13:42:26;15.75;;;6.25;;
55364;SDS011;41245;45.384;20.390;2024-02-23T13:44:52;18.35;;;6.13;;
55364;SDS011;41245;45.384;20.390;2024-02-23T13:47:18;17.15;;;6.18;;
55364;SDS011;41245;45.384;20.390;2024-02-23T13:49:44;15.25;;;7.10;;
55364;SDS011;41245;45.384;20.390;2024-02-23T13:52:10;19.40;;;6.00;;
55364;SDS011;41245;45.384;20.390;2024-02-23T13:54:36;15.13;;;8.68;;
55364;SDS011;41245;45.384;20.390;2024-02-23T13:57:02;13.63;;;8.50;;
55364;SDS011;41245;45.384;20.390;2024-02-23T13:59:28;12.65;;;8.73;;
55364;SDS011;41245;45.384;20.390;2024-02-23T14:01:54;12.50;;;8.63;;
55364;SDS011;41245;45.384;20.390;2024-02-23T14:04:20;19.25;;;10.98;;
55364;SDS011;41245;45.384;20.390;2024-02-23T14:06:46;33.45;;;11.77;;
55364;SDS011;41245;45.384;20.390;2024-02-23T14:09:13;20.73;;;11.02;;
55364;SDS011;41245;45.384;20.390;2024-02-23T14:11:39;18.13;;;8.60;;
55364;SDS011;41245;45.384;20.390;2024-02-23T14:14:05;19.42;;;10.27;;
55364;SDS011;41245;45.384;20.390;2024-02-23T14:16:32;15.77;;;7.63;;